Time;durP1;ratioP1;P1;durP2;ratioP2;P2;SDS_P1;SDS_P2;PMS_P1;PMS_P2;Temp;Humidity;BMP_temperature;BMP_pressure;BME280_temperature;BME280_humidity;BME280_pressure;Samples;Min_cycle;Max_cycle;Signal;HPM_P1;HPM_P2
2023/03/19 00:01:01;;;;;;;;;;;;;;;11.01;64.83;99577.56;1087766;54;19955;-81
2023/03/19 00:02:06;;;;;;;;;;;;;;;10.97;64.90;99576.22;1087707;54;20545;-80
2023/03/19 00:03:07;;;;;;;;;;;;;;;10.96;64.87;99579.88;1087676;54;19958;-81
2023/03/19 00:05:31;;;;;;;;;;;;;;;10.98;64.59;99574.38;1087382;54;19975;-80
2023/03/19 00:06:32;;;;;;;;;;;;;;;10.99;64.55;99579.56;1087782;54;19950;-80
2023/03/19 00:07:36;;;;;;;;;;;;;;;10.98;64.75;99579.75;1087816;54;19943;-82
2023/03/19 00:08:41;;;;;;;;;;;;;;;10.90;64.93;99580.53;1087794;47;19951;-80
2023/03/19 00:09:47;;;;;;;;;;;;;;;10.87;65.36;99581.69;1087759;54;19974;-80
2023/03/19 00:10:54;;;;;;;;;;;;;;;10.87;65.07;99581.69;1087714;54;19966;-80
2023/03/19 00:11:57;;;;;;;;;;;;;;;10.82;65.22;99583.97;1087861;54;19999;-80
2023/03/19 00:13:00;;;;;;;;;;;;;;;10.79;65.72;99583.44;1087849;54;19942;-80
2023/03/19 00:14:04;;;;;;;;;;;;;;;10.75;65.90;99583.78;1087739;54;19958;-80
2023/03/19 00:15:12;;;;;;;;;;;;;;;10.66;66.26;99587.41;1087842;54;19971;-80
2023/03/19 00:16:20;;;;;;;;;;;;;;;10.66;66.35;99590.06;1087390;54;20524;-79
2023/03/19 00:17:21;;;;;;;;;;;;;;;10.68;66.26;99582.72;1087330;54;20023;-80
2023/03/19 00:18:25;;;;;;;;;;;;;;;10.70;66.04;99587.94;1087704;54;19957;-79
2023/03/19 00:19:26;;;;;;;;;;;;;;;10.71;65.64;99584.25;1087788;54;19978;-82
2023/03/19 00:20:33;;;;;;;;;;;;;;;10.69;66.04;99595.09;1088031;54;19967;-81
2023/03/19 00:21:35;;;;;;;;;;;;;;;10.75;65.79;99596.31;1088073;54;19939;-81
2023/03/19 00:23:14;;;;;;;;;;;;;;;10.72;66.35;99594.78;1088186;54;20010;-80
2023/03/19 00:26:10;;;;;;;;;;;;;;;;;;;;;
2023/03/19 00:35:53;;;;;;;;;;;;;;;10.96;64.81;99595.09;1088018;54;19939;-80
2023/03/19 00:37:15;;;;;;;;;;;;;;;11.01;64.61;99603.47;1087665;54;19942;-81
2023/03/19 00:38:19;;;;;;;;;;;;;;;11.06;64.44;99595.81;1087928;54;19943;-79
2023/03/19 00:39:20;;;;;;;;;;;;;;;11.08;64.33;99591.97;1087817;31;20507;-80
2023/03/19 00:40:27;;;;;;;;;;;;;;;11.10;64.16;99596.34;1086798;39;20409;-79
2023/03/19 00:41:28;;;;;;;;;;;;;;;11.13;63.88;99588.84;1087322;39;20443;-79
2023/03/19 00:42:32;;;;;;;;;;;;;;;11.18;64.02;99593.69;1085969;54;19957;-79
2023/03/19 00:43:33;;;;;;;;;;;;;;;11.21;63.73;99588.88;1086474;47;20513;-80
2023/03/19 00:44:37;;;;;;;;;;;;;;;11.18;64.22;99585.69;1086288;54;19950;-80
2023/03/19 00:45:38;;;;;;;;;;;;;;;11.17;64.53;99592.88;1086687;54;19946;-79
2023/03/19 00:46:42;;;;;;;;;;;;;;;11.15;64.55;99589.53;1086653;46;19974;-80
2023/03/19 00:47:43;;;;;;;;;;;;;;;11.17;64.25;99587.53;1086180;54;19951;-80
2023/03/19 00:48:48;;;;;;;;;;;;;;;11.21;63.89;99594.22;1086005;54;19951;-80
2023/03/19 00:49:49;;;;;;;;;;;;;;;11.19;64.02;99587.34;1085914;54;19954;-80
2023/03/19 00:50:55;;;;;;;;;;;;;;;11.18;64.19;99583.84;1085680;54;20039;-80
2023/03/19 00:51:56;;;;;;;;;;;;;;;11.11;63.85;99584.66;1085920;54;19981;-80
2023/03/19 00:53:00;;;;;;;;;;;;;;;11.07;63.90;99582.28;1085971;54;19947;-79
2023/03/19 00:54:01;;;;;;;;;;;;;;;11.06;63.40;99580.59;1085605;54;19981;-79
2023/03/19 00:55:05;;;;;;;;;;;;;;;11.02;63.57;99584.59;1085605;54;19974;-80
2023/03/19 00:56:06;;;;;;;;;;;;;;;11.03;63.59;99580.94;1085579;54;19946;-79
2023/03/19 00:57:12;;;;;;;;;;;;;;;11.02;63.07;99587.28;1086626;39;20448;-80
2023/03/19 00:58:13;;;;;;;;;;;;;;;11.11;62.92;99590.00;1085922;46;20450;-79
2023/03/19 00:59:17;;;;;;;;;;;;;;;11.15;63.09;99584.16;1085723;54;19955;-78
2023/03/19 01:00:18;;;;;;;;;;;;;;;11.17;63.25;99587.53;1085799;54;19973;-79
2023/03/19 01:01:22;;;;;;;;;;;;;;;11.20;63.33;99587.19;1085825;54;19994;-79
2023/03/19 01:02:23;;;;;;;;;;;;;;;11.24;63.14;99580.53;1085758;54;19946;-79
2023/03/19 01:03:27;;;;;;;;;;;;;;;11.27;63.04;99576.69;1086483;47;19947;-79
2023/03/19 01:04:31;;;;;;;;;;;;;;;11.28;63.16;99572.19;1090666;39;20514;-79
2023/03/19 01:05:33;;;;;;;;;;;;;;;11.26;63.58;99580.34;1087643;54;19998;-80
2023/03/19 01:06:40;;;;;;;;;;;;;;;11.27;63.52;99576.69;1087538;54;19942;-80
2023/03/19 01:07:41;;;;;;;;;;;;;;;11.27;63.61;99574.00;1087666;54;19943;-79
2023/03/19 01:08:44;;;;;;;;;;;;;;;11.29;63.26;99573.88;1087541;54;19969;-80
2023/03/19 01:09:45;;;;;;;;;;;;;;;11.31;63.38;99579.88;1087472;54;19970;-79
2023/03/19 01:10:49;;;;;;;;;;;;;;;11.31;63.38;99571.84;1087491;54;19946;-79
2023/03/19 01:11:50;;;;;;;;;;;;;;;11.33;63.31;99580.56;1087539;54;19938;-80
2023/03/19 01:12:54;;;;;;;;;;;;;;;11.34;63.19;99577.72;1087473;54;19943;-79
2023/03/19 01:13:55;;;;;;;;;;;;;;;11.33;63.50;99581.41;1087653;54;20011;-80
2023/03/19 01:15:00;;;;;;;;;;;;;;;11.35;63.46;99573.22;1088621;39;20250;-80
2023/03/19 01:16:01;;;;;;;;;;;;;;;11.31;63.21;99583.41;1087557;54;20301;-80
2023/03/19 01:17:05;;;;;;;;;;;;;;;11.27;63.63;99582.03;1087467;54;19946;-79
2023/03/19 01:18:10;;;;;;;;;;;;;;;11.22;64.24;99585.19;1086892;54;19951;-79
2023/03/19 01:19:15;;;;;;;;;;;;;;;11.16;64.70;99585.00;1087527;54;19946;-79
2023/03/19 01:20:17;;;;;;;;;;;;;;;11.21;64.30;99588.03;1087621;54;19953;-81
2023/03/19 01:21:29;;;;;;;;;;;;;;;11.20;64.43;99595.22;1087897;54;20276;-80
2023/03/19 01:22:36;;;;;;;;;;;;;;;11.23;64.14;99591.41;1087779;54;19942;-80
2023/03/19 01:23:40;;;;;;;;;;;;;;;11.22;64.14;99595.91;1087773;54;19954;-82
2023/03/19 01:24:41;;;;;;;;;;;;;;;11.17;64.33;99595.56;1089751;39;20200;-80
2023/03/19 01:25:46;;;;;;;;;;;;;;;11.13;64.65;99591.50;1087762;54;19942;-80
2023/03/19 01:26:47;;;;;;;;;;;;;;;11.16;64.51;99601.03;1087863;46;19966;-81
2023/03/19 01:27:52;;;;;;;;;;;;;;;11.17;64.36;99590.19;1087729;54;19949;-81
2023/03/19 01:28:53;;;;;;;;;;;;;;;11.15;64.57;99599.38;1088030;46;19942;-80
2023/03/19 01:29:57;;;;;;;;;;;;;;;11.17;64.15;99594.69;1087402;54;19947;-80
2023/03/19 01:30:59;;;;;;;;;;;;;;;11.20;64.03;99597.06;1087902;54;19954;-81
2023/03/19 01:32:03;;;;;;;;;;;;;;;11.20;64.00;99597.06;1087799;54;19950;-80
2023/03/19 01:33:05;;;;;;;;;;;;;;;11.21;64.35;99594.22;1087749;54;19937;-80
2023/03/19 01:34:09;;;;;;;;;;;;;;;11.10;65.00;99596.34;1087792;54;19962;-80
2023/03/19 01:35:11;;;;;;;;;;;;;;;10.93;65.50;99601.59;1087739;54;19965;-80
2023/03/19 01:36:15;;;;;;;;;;;;;;;10.95;65.33;99604.97;1087786;54;19965;-79
2023/03/19 01:37:16;;;;;;;;;;;;;;;11.03;65.01;99594.31;1087855;54;20619;-80
2023/03/19 01:38:24;;;;;;;;;;;;;;;11.09;64.65;99595.50;1087717;54;19942;-80
2023/03/19 01:39:26;;;;;;;;;;;;;;;11.12;64.36;99586.31;1087811;54;19950;-80
2023/03/19 01:40:32;;;;;;;;;;;;;;;11.11;64.70;99593.50;1087780;54;20745;-81
2023/03/19 01:41:33;;;;;;;;;;;;;;;11.09;64.89;99590.16;1087816;54;19943;-80
2023/03/19 01:42:52;;;;;;;;;;;;;;;10.99;65.48;99595.63;1087721;54;19943;-79
2023/03/19 01:43:53;;;;;;;;;;;;;;;10.87;66.38;99588.84;1087460;54;19943;-79
2023/03/19 01:44:57;;;;;;;;;;;;;;;10.76;66.88;99596.16;1087440;54;19960;-80
2023/03/19 01:45:59;;;;;;;;;;;;;;;10.80;66.61;99594.00;1087464;54;19943;-78
2023/03/19 01:47:04;;;;;;;;;;;;;;;10.84;65.93;99592.69;1087470;54;19966;-80
2023/03/19 02:14:12;;;;;;;;;;;;;;;10.49;66.74;99631.00;1087992;54;19942;-81
2023/03/19 02:15:20;;;;;;;;;;;;;;;10.55;66.65;99630.41;1088082;54;19949;-81
2023/03/19 02:16:30;;;;;;;;;;;;;;;10.58;66.26;99638.13;1088218;54;19962;-82
2023/03/19 02:19:00;;;;;;;;;;;;;;;10.34;67.17;99655.59;1088185;54;19943;-81
2023/03/19 02:20:07;;;;;;;;;;;;;;;10.33;67.35;99655.75;1088114;54;19966;-82
2023/03/19 02:58:47;;;;;;;;;;;;;;;10.83;66.99;99638.31;1087980;54;20891;-80
2023/03/19 02:59:48;;;;;;;;;;;;;;;10.81;66.86;99645.63;1087699;54;20524;-81
2023/03/19 03:00:56;;;;;;;;;;;;;;;10.85;67.46;99639.81;1087487;54;19954;-80
2023/03/19 03:01:57;;;;;;;;;;;;;;;10.91;66.74;99647.22;1087704;54;20649;-81
2023/03/19 03:03:08;;;;;;;;;;;;;;;10.94;67.06;99648.75;1088274;54;19951;-81
2023/03/19 03:04:09;;;;;;;;;;;;;;;10.99;67.13;99649.09;1088034;54;20010;-81
2023/03/19 03:05:28;;;;;;;;;;;;;;;10.93;67.45;99655.91;1088407;54;19943;-82
2023/03/19 03:06:29;;;;;;;;;;;;;;;10.93;67.09;99650.56;1088253;54;19926;-81
2023/03/19 03:09:05;;;;;;;;;;;;;;;11.04;67.22;99657.50;1088419;54;19988;-81
2023/03/19 03:10:29;;;;;;;;;;;;;;;11.12;67.13;99653.19;1088199;54;20026;-81
2023/03/19 03:11:31;;;;;;;;;;;;;;;11.14;67.97;99657.41;1088389;54;19942;-82
2023/03/19 03:12:48;;;;;;;;;;;;;;;11.07;68.64;99662.53;1088297;54;19949;-81
2023/03/19 03:13:51;;;;;;;;;;;;;;;11.12;68.06;99654.03;1088204;54;19951;-80
2023/03/19 03:15:07;;;;;;;;;;;;;;;11.16;67.59;99655.41;1088323;54;19950;-81
2023/03/19 03:16:08;;;;;;;;;;;;;;;11.13;69.08;99654.88;1088151;54;20022;-81
2023/03/19 03:17:14;;;;;;;;;;;;;;;11.06;69.70;99655.50;1088215;54;19949;-81
2023/03/19 03:18:16;;;;;;;;;;;;;;;11.08;69.29;99658.84;1088340;54;19934;-81
2023/03/19 03:19:20;;;;;;;;;;;;;;;11.05;69.89;99655.66;1088228;54;19945;-79
2023/03/19 03:20:21;;;;;;;;;;;;;;;11.03;70.25;99657.66;1088140;54;20540;-80
2023/03/19 03:21:25;;;;;;;;;;;;;;;10.96;71.14;99660.09;1088084;54;19974;-80
2023/03/19 03:22:26;;;;;;;;;;;;;;;10.96;71.37;99657.44;1088163;54;20682;-80
2023/03/19 03:23:32;;;;;;;;;;;;;;;11.02;70.58;99654.16;1088037;54;19949;-81
2023/03/19 03:24:33;;;;;;;;;;;;;;;11.08;70.04;99661.53;1087933;54;19943;-80
2023/03/19 03:25:37;;;;;;;;;;;;;;;11.10;70.52;99658.69;1087779;54;20564;-81
2023/03/19 03:26:38;;;;;;;;;;;;;;;11.13;70.85;99657.56;1087727;54;19951;-80
2023/03/19 03:27:42;;;;;;;;;;;;;;;11.14;70.72;99657.41;1087560;54;19950;-80
2023/03/19 03:28:43;;;;;;;;;;;;;;;11.14;71.43;99659.25;1087531;54;19950;-80
2023/03/19 03:29:50;;;;;;;;;;;;;;;11.10;70.92;99649.84;1087359;54;19942;-80
2023/03/19 03:30:56;;;;;;;;;;;;;;;11.08;71.36;99655.38;1087415;54;19953;-81
2023/03/19 03:32:00;;;;;;;;;;;;;;;11.04;71.70;99646.81;1087754;54;19954;-81
2023/03/19 03:33:07;;;;;;;;;;;;;;;11.05;71.66;99647.63;1087544;54;20556;-80
2023/03/19 03:34:11;;;;;;;;;;;;;;;11.06;71.65;99644.81;1087641;54;20054;-80
2023/03/19 03:35:12;;;;;;;;;;;;;;;11.08;71.70;99650.00;1087597;54;19957;-79
2023/03/19 03:36:16;;;;;;;;;;;;;;;11.11;71.70;99656.88;1087559;54;19954;-80
2023/03/19 03:37:18;;;;;;;;;;;;;;;11.13;71.06;99660.25;1087645;54;20372;-80
2023/03/19 03:38:22;;;;;;;;;;;;;;;11.10;72.95;99655.19;1087523;54;19942;-80
2023/03/19 03:39:24;;;;;;;;;;;;;;;11.10;72.67;99661.38;1087573;54;20292;-80
2023/03/19 03:40:28;;;;;;;;;;;;;;;11.05;74.32;99659.16;1088504;39;20429;-79
2023/03/19 03:41:29;;;;;;;;;;;;;;;11.01;73.97;99664.97;1087488;54;19950;-79
2023/03/19 03:42:33;;;;;;;;;;;;;;;10.88;74.88;99665.41;1087273;54;19942;-79
2023/03/19 03:43:34;;;;;;;;;;;;;;;10.82;74.38;99668.72;1087276;54;19942;-79
2023/03/19 03:44:37;;;;;;;;;;;;;;;10.80;74.90;99665.34;1087331;54;19950;-79
2023/03/19 03:45:42;;;;;;;;;;;;;;;10.88;73.52;99668.06;1087461;54;19954;-78
2023/03/19 03:46:46;;;;;;;;;;;;;;;10.89;73.28;99661.72;1087565;54;19950;-79
2023/03/19 03:47:48;;;;;;;;;;;;;;;10.93;72.80;99665.78;1087625;54;19942;-79
2023/03/19 03:48:51;;;;;;;;;;;;;;;10.98;72.67;99668.81;1088688;39;20468;-79
2023/03/19 03:49:54;;;;;;;;;;;;;;;10.97;74.18;99675.16;1087505;54;19950;-78
2023/03/19 03:50:58;;;;;;;;;;;;;;;10.98;73.27;99665.31;1087725;54;19950;-80
2023/03/19 03:51:59;;;;;;;;;;;;;;;10.99;73.64;99669.69;1087661;54;19946;-79
2023/03/19 03:53:02;;;;;;;;;;;;;;;10.97;73.94;99661.78;1087521;54;19990;-79
2023/03/19 03:54:04;;;;;;;;;;;;;;;10.98;73.43;99671.50;1087636;54;20670;-79
2023/03/19 03:55:08;;;;;;;;;;;;;;;10.99;73.24;99673.19;1087533;54;19943;-80
2023/03/19 03:56:11;;;;;;;;;;;;;;;11.01;73.36;99675.69;1087468;54;20559;-79
2023/03/19 03:57:15;;;;;;;;;;;;;;;10.96;74.69;99668.13;1087607;54;19982;-79
2023/03/19 03:58:16;;;;;;;;;;;;;;;10.97;74.24;99667.13;1087787;54;19942;-80
2023/03/19 03:59:20;;;;;;;;;;;;;;;10.98;73.87;99668.00;1087803;54;19943;-80
2023/03/19 04:00:21;;;;;;;;;;;;;;;11.02;73.50;99670.19;1087847;54;19950;-79
2023/03/19 04:01:27;;;;;;;;;;;;;;;11.05;73.44;99663.69;1087834;54;19970;-80
2023/03/19 04:02:29;;;;;;;;;;;;;;;11.05;73.66;99669.88;1087358;54;19955;-80
2023/03/19 04:03:50;;;;;;;;;;;;;;;11.01;74.88;99668.50;1087976;54;19942;-80
2023/03/19 04:04:57;;;;;;;;;;;;;;;11.01;74.38;99673.00;1087925;54;19949;-80
2023/03/19 04:06:04;;;;;;;;;;;;;;;11.00;74.36;99666.00;1087868;54;19942;-80
2023/03/19 04:07:06;;;;;;;;;;;;;;;11.00;74.07;99668.69;1091767;39;20633;-80
2023/03/19 04:08:12;;;;;;;;;;;;;;;10.98;74.17;99668.81;1088034;54;19930;-82
2023/03/19 04:09:14;;;;;;;;;;;;;;;10.98;74.35;99666.16;1088616;39;20625;-82
2023/03/19 04:10:18;;;;;;;;;;;;;;;10.99;74.15;99672.34;1087918;54;19953;-80
2023/03/19 04:11:20;;;;;;;;;;;;;;;10.99;74.09;99669.69;1088075;54;19950;-81
2023/03/19 04:12:25;;;;;;;;;;;;;;;10.99;73.99;99673.19;1087978;54;19941;-80
2023/03/19 04:13:27;;;;;;;;;;;;;;;10.95;74.65;99668.31;1087878;54;19973;-80
2023/03/19 04:14:31;;;;;;;;;;;;;;;10.97;74.26;99669.00;1087950;54;19943;-80
2023/03/19 04:15:32;;;;;;;;;;;;;;;10.97;74.11;99675.16;1087885;54;19998;-79
2023/03/19 04:16:40;;;;;;;;;;;;;;;10.99;74.16;99670.50;1087939;54;19934;-79
2023/03/19 04:17:42;;;;;;;;;;;;;;;10.92;74.44;99664.09;1087779;54;19942;-80
2023/03/19 04:18:45;;;;;;;;;;;;;;;10.88;74.03;99668.06;1087916;54;19943;-80
2023/03/19 04:19:47;;;;;;;;;;;;;;;10.82;74.79;99669.53;1087936;54;20014;-80
2023/03/19 04:20:51;;;;;;;;;;;;;;;10.75;74.60;99676.50;1087935;54;19959;-81
2023/03/19 04:21:52;;;;;;;;;;;;;;;10.67;75.37;99671.09;1087924;54;19942;-81
2023/03/19 04:23:03;;;;;;;;;;;;;;;10.61;75.41;99670.75;1087969;54;19942;-80
2023/03/19 04:24:04;;;;;;;;;;;;;;;10.55;75.64;99678.53;1087889;54;19957;-80
2023/03/19 04:25:25;;;;;;;;;;;;;;;10.58;75.69;99680.91;1087982;54;20671;-80
2023/03/19 04:26:26;;;;;;;;;;;;;;;10.48;75.81;99682.81;1087983;54;19950;-80
2023/03/19 04:27:32;;;;;;;;;;;;;;;10.44;76.19;99675.09;1088109;54;19950;-80
2023/03/19 04:28:33;;;;;;;;;;;;;;;10.43;76.14;99676.06;1087996;54;19942;-80
2023/03/19 04:29:38;;;;;;;;;;;;;;;10.41;76.62;99680.72;1087846;54;19943;-81
2023/03/19 04:30:39;;;;;;;;;;;;;;;10.40;76.14;99683.56;1087972;54;20603;-80
2023/03/19 04:31:47;;;;;;;;;;;;;;;10.41;76.20;99677.22;1095062;39;20600;-80
2023/03/19 04:32:48;;;;;;;;;;;;;;;10.41;76.67;99680.72;1088036;54;19942;-81
2023/03/19 04:33:52;;;;;;;;;;;;;;;10.44;76.33;99682.25;1088015;54;19943;-80
2023/03/19 04:34:53;;;;;;;;;;;;;;;10.50;75.66;99683.47;1087852;54;19967;-81
2023/03/19 04:36:03;;;;;;;;;;;;;;;10.48;75.72;99683.63;1087873;54;19998;-80
2023/03/19 04:37:09;;;;;;;;;;;;;;;10.45;76.12;99683.94;1087946;54;19942;-80
2023/03/19 04:38:10;;;;;;;;;;;;;;;10.55;75.18;99684.69;1087909;54;19942;-80
2023/03/19 04:39:13;;;;;;;;;;;;;;;10.51;75.59;99690.50;1088041;54;19942;-81
2023/03/19 04:40:15;;;;;;;;;;;;;;;10.51;75.87;99682.47;1087875;54;20005;-79
2023/03/19 04:41:33;;;;;;;;;;;;;;;10.51;75.38;99690.50;1087880;54;19934;-81
2023/03/19 04:42:34;;;;;;;;;;;;;;;10.51;75.48;99690.50;1087884;54;19939;-80
2023/03/19 04:43:51;;;;;;;;;;;;;;;10.49;75.70;99692.47;1087903;54;20508;-80
2023/03/19 04:44:53;;;;;;;;;;;;;;;10.54;75.62;99685.69;1087991;47;19942;-80
2023/03/19 04:46:05;;;;;;;;;;;;;;;10.58;75.08;99686.25;1087944;54;19927;-81
2023/03/19 04:47:09;;;;;;;;;;;;;;;10.58;75.02;99688.91;1088577;46;19990;-81
2023/03/19 04:48:17;;;;;;;;;;;;;;;10.66;74.69;99682.78;1087947;54;19986;-81
2023/03/19 04:49:19;;;;;;;;;;;;;;;10.73;74.44;99689.19;1088933;46;19964;-79
2023/03/19 04:50:29;;;;;;;;;;;;;;;10.76;73.96;99684.41;1087945;54;19954;-82
2023/03/19 04:51:31;;;;;;;;;;;;;;;10.80;74.25;99684.06;1088060;54;19965;-81
2023/03/19 04:52:41;;;;;;;;;;;;;;;10.81;74.25;99686.59;1088733;46;19954;-80
2023/03/19 04:53:43;;;;;;;;;;;;;;;10.81;74.51;99689.28;1087905;54;19967;-81
2023/03/19 04:54:47;;;;;;;;;;;;;;;10.83;74.18;99692.59;1088622;46;19951;-80
2023/03/19 04:55:48;;;;;;;;;;;;;;;10.86;73.66;99694.16;1088150;46;19973;-81
2023/03/19 04:56:59;;;;;;;;;;;;;;;10.84;74.57;99693.47;1089967;46;19942;-79
2023/03/19 04:58:00;;;;;;;;;;;;;;;10.82;74.45;99701.63;1087998;54;19947;-80
2023/03/19 04:59:10;;;;;;;;;;;;;;;10.84;74.28;99696.13;1088029;54;19949;-80
2023/03/19 05:00:13;;;;;;;;;;;;;;;10.87;73.68;99699.34;1088083;54;19939;-80
2023/03/19 05:01:18;;;;;;;;;;;;;;;10.89;73.58;99708.06;1091725;46;19942;-80
2023/03/19 05:02:22;;;;;;;;;;;;;;;10.93;73.63;99705.91;1087986;54;19939;-80
2023/03/19 05:03:26;;;;;;;;;;;;;;;10.95;73.60;99711.94;1087278;54;20006;-81
2023/03/19 05:04:27;;;;;;;;;;;;;;;10.97;73.61;99704.59;1087899;54;19954;-80
2023/03/19 05:05:31;;;;;;;;;;;;;;;10.99;73.39;99704.44;1088093;54;19934;-80
2023/03/19 05:06:41;;;;;;;;;;;;;;;10.99;73.00;99707.94;1088426;54;19950;-81
2023/03/19 05:07:46;;;;;;;;;;;;;;;11.02;72.87;99707.66;1088800;46;19943;-81
2023/03/19 05:08:59;;;;;;;;;;;;;;;11.01;73.08;99705.97;1088363;54;20007;-81
2023/03/19 05:10:04;;;;;;;;;;;;;;;11.01;73.92;99705.97;1088370;54;19942;-81
2023/03/19 05:11:05;;;;;;;;;;;;;;;11.01;74.39;99715.81;1088350;54;19947;-80
2023/03/19 05:12:09;;;;;;;;;;;;;;;10.96;74.28;99712.78;1090447;46;19939;-81
2023/03/19 05:13:28;;;;;;;;;;;;;;;10.90;74.64;99716.91;1091294;46;19923;-81
2023/03/19 05:14:29;;;;;;;;;;;;;;;10.86;74.71;99716.38;1090197;46;19951;-81
2023/03/19 05:15:43;;;;;;;;;;;;;;;10.76;75.51;99715.63;1090562;46;19943;-83
2023/03/19 05:16:44;;;;;;;;;;;;;;;10.66;76.20;99713.03;1088612;46;19947;-82
2023/03/19 05:17:52;;;;;;;;;;;;;;;10.51;77.24;99722.56;1088239;54;19923;-81
2023/03/19 05:18:53;;;;;;;;;;;;;;;10.47;76.99;99719.38;1088546;47;19943;-81
2023/03/19 05:20:11;;;;;;;;;;;;;;;10.45;77.12;99724.88;1088383;47;19983;-80
2023/03/19 05:21:13;;;;;;;;;;;;;;;10.43;77.46;99720.69;1088699;46;19938;-82
2023/03/19 05:22:34;;;;;;;;;;;;;;;10.38;77.44;99725.63;1088454;54;19935;-82
2023/03/19 05:23:36;;;;;;;;;;;;;;;10.30;78.10;99723.66;1089181;46;19933;-83
2023/03/19 05:26:08;;;;;;;;;;;;;;;10.27;78.52;99726.66;1088117;54;19943;-80
2023/03/19 05:27:11;;;;;;;;;;;;;;;10.33;78.50;99727.88;1089918;46;19938;-80
2023/03/19 05:28:15;;;;;;;;;;;;;;;10.29;78.38;99722.00;1088183;46;20169;-78
2023/03/19 05:29:16;;;;;;;;;;;;;;;10.30;77.58;99723.66;1087837;54;19942;-80
2023/03/19 05:30:24;;;;;;;;;;;;;;;10.33;77.69;99726.03;1087832;54;20034;-80
2023/03/19 05:34:36;;;;;;;;;;;;;;;10.50;76.99;99723.56;1087747;54;19967;-80
2023/03/19 05:35:44;;;;;;;;;;;;;;;10.46;77.72;99731.03;1087882;54;19942;-81
2023/03/19 05:36:46;;;;;;;;;;;;;;;10.47;77.58;99730.06;1087588;54;19942;-79
2023/03/19 05:37:59;;;;;;;;;;;;;;;10.49;77.23;99733.44;1087487;54;19957;-81
2023/03/19 05:55:16;;;;;;;;;;;;;;;10.32;77.23;99748.41;1087386;54;19986;-81
2023/03/19 05:56:25;;;;;;;;;;;;;;;10.34;77.21;99746.44;1087560;47;19973;-80
2023/03/19 05:59:11;;;;;;;;;;;;;;;10.37;77.45;99742.63;1087397;54;19930;-80
2023/03/19 06:00:34;;;;;;;;;;;;;;;10.40;77.27;99745.03;1087541;54;19962;-80
2023/03/19 06:09:50;;;;;;;;;;;;;;;10.65;75.66;99745.25;1087732;54;19994;-79
2023/03/19 06:18:08;;;;;;;;;;;;;;;10.86;74.24;99750.31;1088192;54;19966;-81
2023/03/19 06:19:12;;;;;;;;;;;;;;;10.83;74.29;99750.63;1087901;54;19954;-80
2023/03/19 06:20:18;;;;;;;;;;;;;;;10.79;73.90;99757.25;1088094;54;19947;-82
2023/03/19 06:21:30;;;;;;;;;;;;;;;10.83;73.96;99755.97;1087975;54;19957;-80
2023/03/19 06:22:32;;;;;;;;;;;;;;;10.84;73.59;99758.47;1087698;54;20466;-80
2023/03/19 06:23:38;;;;;;;;;;;;;;;10.80;74.35;99757.13;1087814;54;20015;-82
2023/03/19 06:24:41;;;;;;;;;;;;;;;10.81;73.87;99760.63;1088013;54;19949;-80
2023/03/19 06:25:49;;;;;;;;;;;;;;;10.83;74.01;99761.31;1088129;54;19954;-80
2023/03/19 06:27:02;;;;;;;;;;;;;;;10.80;74.12;99765.13;1088072;54;20049;-81
2023/03/19 06:28:13;;;;;;;;;;;;;;;10.77;74.54;99768.94;1088287;54;19962;-81
2023/03/19 06:32:35;;;;;;;;;;;;;;;10.98;74.42;99767.78;1088104;54;19966;-80
2023/03/19 06:33:37;;;;;;;;;;;;;;;11.01;74.45;99759.47;1089994;46;20508;-81
2023/03/19 06:34:53;;;;;;;;;;;;;;;10.96;74.80;99769.75;1088005;54;19943;-80
2023/03/19 06:42:55;;;;;;;;;;;;;;;11.12;74.26;99757.53;1088353;54;19930;-80
2023/03/19 06:44:02;;;;;;;;;;;;;;;11.10;74.77;99767.53;1088433;54;19943;-79
2023/03/19 06:45:05;;;;;;;;;;;;;;;11.10;74.12;99762.19;1088376;54;19994;-79
2023/03/19 06:46:09;;;;;;;;;;;;;;;11.05;74.16;99766.16;1089736;46;19939;-80
2023/03/19 06:51:27;;;;;;;;;;;;;;;;;;;;;
2023/03/19 06:56:22;;;;;;;;;;;;;;;11.23;73.42;99768.81;1088552;54;19938;-83
2023/03/19 06:57:31;;;;;;;;;;;;;;;11.13;73.11;99777.94;1090272;46;19954;-81
2023/03/19 06:58:34;;;;;;;;;;;;;;;11.09;74.05;99774.75;1089335;46;19938;-82
2023/03/19 07:00:09;;;;;;;;;;;;;;;11.12;73.91;99778.94;1088623;46;19954;-81
2023/03/19 07:01:53;;;;;;;;;;;;;;;11.12;73.62;99781.63;1089965;46;19930;-81
2023/03/19 07:03:13;;;;;;;;;;;;;;;11.06;74.12;99778.53;1089435;46;19950;-81
2023/03/19 07:04:43;;;;;;;;;;;;;;;11.06;74.59;99781.22;1088387;54;20030;-80
2023/03/19 07:06:02;;;;;;;;;;;;;;;11.14;74.18;99777.78;1091415;46;19949;-80
2023/03/19 07:07:22;;;;;;;;;;;;;;;11.14;74.52;99784.97;1088516;54;19938;-79
2023/03/19 07:08:44;;;;;;;;;;;;;;;;;;;;;
2023/03/19 07:09:58;;;;;;;;;;;;;;;11.30;73.73;99773.53;1093676;46;19923;-81
2023/03/19 07:11:15;;;;;;;;;;;;;;;11.37;72.95;99785.31;1088477;54;19952;-81
2023/03/19 07:12:20;;;;;;;;;;;;;;;11.38;73.04;99785.16;1088414;54;19943;-80
2023/03/19 07:13:38;;;;;;;;;;;;;;;11.41;73.08;99785.84;1088420;54;19975;-81
2023/03/19 07:34:44;;;;;;;;;;;;;;;11.62;70.67;99802.38;1088117;46;19943;-80
2023/03/19 07:35:45;;;;;;;;;;;;;;;11.61;71.06;99814.09;1088292;46;19970;-79
2023/03/19 07:36:51;;;;;;;;;;;;;;;11.58;71.52;99802.84;1088027;54;19950;-79
2023/03/19 07:37:53;;;;;;;;;;;;;;;11.63;71.44;99803.22;1087721;54;19998;-82
2023/03/19 07:42:27;;;;;;;;;;;;;;;11.85;70.74;99788.44;1087905;54;19946;-81
2023/03/19 07:43:32;;;;;;;;;;;;;;;11.83;70.27;99796.66;1087967;54;19945;-81
2023/03/19 07:44:36;;;;;;;;;;;;;;;11.82;70.55;99799.47;1088341;46;19960;-80
2023/03/19 07:45:37;;;;;;;;;;;;;;;11.84;70.25;99787.63;1087538;54;19942;-82
2023/03/19 07:46:41;;;;;;;;;;;;;;;11.86;70.58;99793.63;1087742;54;19943;-81
2023/03/19 07:47:42;;;;;;;;;;;;;;;11.93;70.22;99796.53;1087596;54;19927;-80
2023/03/19 07:48:48;;;;;;;;;;;;;;;11.97;70.17;99795.25;1087370;54;19957;-81
2023/03/19 07:49:50;;;;;;;;;;;;;;;11.99;69.33;99795.06;1087761;54;19938;-80
2023/03/19 07:50:54;;;;;;;;;;;;;;;11.87;69.55;99797.16;1087911;54;19943;-80
2023/03/19 07:51:55;;;;;;;;;;;;;;;11.93;69.53;99790.34;1088006;54;19942;-80
2023/03/19 07:53:27;;;;;;;;;;;;;;;11.98;69.34;99794.25;1087846;54;19982;-82
2023/03/19 07:54:34;;;;;;;;;;;;;;;12.07;68.94;99791.59;1088105;47;19943;-82
2023/03/19 07:59:30;;;;;;;;;;;;;;;12.17;68.28;99792.31;1087038;54;19946;-83
2023/03/19 08:00:45;;;;;;;;;;;;;;;12.20;68.29;99791.97;1087536;54;19965;-81
2023/03/19 08:05:05;;;;;;;;;;;;;;;12.21;67.93;99793.66;1086645;54;19953;-79
2023/03/19 08:06:15;;;;;;;;;;;;;;;12.29;67.79;99796.38;1086586;54;20513;-79
2023/03/19 08:07:16;;;;;;;;;;;;;;;12.24;66.85;99788.00;1086968;54;19968;-79
2023/03/19 08:08:23;;;;;;;;;;;;;;;12.24;66.97;99796.03;1087313;54;19943;-80
2023/03/19 08:09:25;;;;;;;;;;;;;;;12.31;66.94;99797.06;1086644;54;19957;-79
2023/03/19 08:15:01;;;;;;;;;;;;;;;12.36;65.93;99806.47;1087155;54;20986;-79
2023/03/19 08:16:02;;;;;;;;;;;;;;;12.39;65.78;99806.13;1086514;54;20631;-78
2023/03/19 08:17:07;;;;;;;;;;;;;;;12.46;66.09;99804.50;1086974;54;20596;-78
2023/03/19 08:18:13;;;;;;;;;;;;;;;12.55;65.64;99800.81;1087699;46;19943;-80
2023/03/19 08:19:15;;;;;;;;;;;;;;;12.65;65.50;99797.97;1089201;39;20475;-80
2023/03/19 08:20:20;;;;;;;;;;;;;;;12.62;64.91;99809.03;1087536;54;19943;-79
2023/03/19 08:21:23;;;;;;;;;;;;;;;12.68;65.29;99799.50;1086852;54;19989;-80
2023/03/19 08:22:27;;;;;;;;;;;;;;;12.70;64.89;99800.19;1087690;54;19943;-80
2023/03/19 08:23:31;;;;;;;;;;;;;;;12.74;64.99;99799.69;1087500;54;19953;-80
2023/03/19 08:24:32;;;;;;;;;;;;;;;12.82;65.02;99790.81;1087542;54;19943;-80
2023/03/19 08:25:36;;;;;;;;;;;;;;;12.88;65.11;99795.50;1087504;54;19942;-80
2023/03/19 08:26:37;;;;;;;;;;;;;;;12.92;64.43;99790.66;1087619;54;19963;-80
2023/03/19 08:27:41;;;;;;;;;;;;;;;12.95;64.23;99784.97;1087405;54;19991;-79
2023/03/19 08:28:42;;;;;;;;;;;;;;;12.91;64.26;99788.97;1087545;54;19957;-79
2023/03/19 08:29:46;;;;;;;;;;;;;;;12.90;63.54;99780.09;1087275;54;20860;-79
2023/03/19 08:30:47;;;;;;;;;;;;;;;13.03;63.44;99790.31;1087328;54;19950;-80
2023/03/19 08:31:50;;;;;;;;;;;;;;;13.13;63.83;99790.16;1087002;54;19950;-79
2023/03/19 08:32:51;;;;;;;;;;;;;;;13.17;62.74;99788.81;1087332;54;19943;-80